Time;durP1;ratioP1;P1;durP2;ratioP2;P2;SDS_P1;SDS_P2;PMS_P1;PMS_P2;Temp;Humidity;BMP_temperature;BMP_pressure;BME280_temperature;BME280_humidity;BME280_pressure;Samples;Min_cycle;Max_cycle;Signal;HPM_P1;HPM_P2
2021/05/17 00:02:20;;;;;;;1.10;0.95;;;;;;;;;;5011744;28;20550;-76
2021/05/17 00:04:46;;;;;;;1.10;0.70;;;;;;;;;;5019266;28;20184;-77
2021/05/17 00:07:12;;;;;;;1.27;1.17;;;;;;;;;;5004904;28;20575;-77
2021/05/17 00:09:38;;;;;;;1.10;0.80;;;;;;;;;;5010662;28;20284;-76
2021/05/17 00:12:06;;;;;;;1.25;1.15;;;;;;;;;;5012739;28;20608;-76
2021/05/17 00:14:32;;;;;;;1.10;0.80;;;;;;;;;;5012585;28;20646;-76
2021/05/17 00:16:58;;;;;;;1.10;0.75;;;;;;;;;;5012866;28;20582;-76
2021/05/17 00:19:24;;;;;;;1.10;0.80;;;;;;;;;;5010846;28;20234;-76
2021/05/17 00:21:51;;;;;;;1.10;0.80;;;;;;;;;;5012528;28;20185;-76
2021/05/17 00:24:17;;;;;;;1.30;0.85;;;;;;;;;;5012787;28;20177;-76
2021/05/17 00:26:43;;;;;;;1.10;0.77;;;;;;;;;;5011853;28;20188;-76
2021/05/17 00:29:09;;;;;;;1.10;0.70;;;;;;;;;;5012011;28;20217;-76
2021/05/17 00:31:36;;;;;;;1.10;0.70;;;;;;;;;;5012753;28;20181;-76
2021/05/17 00:34:03;;;;;;;1.10;0.95;;;;;;;;;;5012427;28;20228;-76
2021/05/17 00:36:31;;;;;;;1.20;0.90;;;;;;;;;;5016261;28;20201;-76
2021/05/17 00:38:57;;;;;;;1.10;0.70;;;;;;;;;;5003580;28;20179;-76
2021/05/17 00:41:23;;;;;;;1.10;0.80;;;;;;;;;;5012311;28;20189;-76
2021/05/17 00:43:52;;;;;;;1.10;0.70;;;;;;;;;;5012101;28;20183;-76
2021/05/17 00:46:18;;;;;;;1.10;0.70;;;;;;;;;;5012292;28;20246;-76
2021/05/17 00:48:44;;;;;;;1.10;0.70;;;;;;;;;;5011695;28;20198;-76
2021/05/17 00:51:10;;;;;;;1.10;0.80;;;;;;;;;;5012114;28;20264;-76
2021/05/17 00:53:37;;;;;;;1.20;0.85;;;;;;;;;;5012292;28;20167;-76
2021/05/17 00:56:03;;;;;;;1.10;0.70;;;;;;;;;;5012001;28;20236;-76
2021/05/17 00:58:29;;;;;;;1.10;0.70;;;;;;;;;;5003739;28;20177;-76
2021/05/17 01:00:55;;;;;;;1.10;0.70;;;;;;;;;;5012186;28;20275;-77
2021/05/17 01:03:21;;;;;;;1.10;0.80;;;;;;;;;;5012075;28;20518;-77
2021/05/17 01:05:48;;;;;;;1.10;0.70;;;;;;;;;;5012226;28;20208;-76
2021/05/17 01:08:14;;;;;;;1.10;0.70;;;;;;;;;;5011375;28;20820;-78
2021/05/17 01:10:42;;;;;;;1.10;0.80;;;;;;;;;;5011545;28;20285;-77
2021/05/17 01:13:08;;;;;;;1.10;1.00;;;;;;;;;;5011987;28;20171;-77
2021/05/17 01:15:34;;;;;;;1.47;1.03;;;;;;;;;;5012103;28;20714;-77
2021/05/17 01:18:00;;;;;;;1.33;1.00;;;;;;;;;;5012088;28;20413;-77
2021/05/17 01:20:30;;;;;;;1.10;0.80;;;;;;;;;;5011831;28;20206;-77
2021/05/17 01:23:18;;;;;;;1.10;0.70;;;;;;;;;;5012210;28;20177;-77
2021/05/17 01:25:44;;;;;;;1.25;0.82;;;;;;;;;;5012005;28;20179;-77
2021/05/17 01:28:11;;;;;;;1.10;0.77;;;;;;;;;;5008136;28;20242;-77
2021/05/17 01:30:37;;;;;;;1.10;0.77;;;;;;;;;;4992306;28;20274;-77
2021/05/17 01:33:03;;;;;;;1.10;0.70;;;;;;;;;;5010723;28;20182;-77
2021/05/17 01:35:29;;;;;;;1.10;0.90;;;;;;;;;;5005556;28;20309;-77
2021/05/17 01:37:56;;;;;;;1.10;0.77;;;;;;;;;;5011869;28;20184;-78
2021/05/17 01:40:23;;;;;;;1.10;0.80;;;;;;;;;;5009657;28;20252;-78
2021/05/17 01:42:52;;;;;;;1.10;0.70;;;;;;;;;;5006347;28;20209;-77
2021/05/17 01:45:18;;;;;;;1.10;0.70;;;;;;;;;;5011946;28;20190;-77
2021/05/17 01:47:44;;;;;;;1.10;0.90;;;;;;;;;;5014958;28;20274;-77
2021/05/17 01:50:12;;;;;;;1.10;0.80;;;;;;;;;;5015380;28;20215;-77
2021/05/17 01:52:38;;;;;;;1.10;0.70;;;;;;;;;;5015668;28;20182;-77
2021/05/17 01:55:06;;;;;;;1.10;0.90;;;;;;;;;;5015540;28;20210;-77
2021/05/17 01:57:32;;;;;;;1.10;0.70;;;;;;;;;;5015068;28;20266;-77
2021/05/17 01:59:59;;;;;;;1.10;0.70;;;;;;;;;;5015118;28;20195;-76
2021/05/17 02:02:25;;;;;;;1.10;0.70;;;;;;;;;;5015797;28;20173;-77
2021/05/17 02:04:53;;;;;;;1.10;0.70;;;;;;;;;;5021884;28;20351;-76
2021/05/17 02:07:19;;;;;;;1.20;0.90;;;;;;;;;;5007085;28;20423;-77
2021/05/17 02:09:46;;;;;;;1.10;0.80;;;;;;;;;;5014326;28;20210;-76
2021/05/17 02:12:13;;;;;;;1.65;1.00;;;;;;;;;;5015174;28;20438;-76
2021/05/17 02:14:40;;;;;;;1.10;0.70;;;;;;;;;;5014677;28;20241;-77
2021/05/17 02:17:06;;;;;;;1.10;0.70;;;;;;;;;;5015403;28;20554;-77
2021/05/17 02:19:32;;;;;;;1.10;0.90;;;;;;;;;;5014687;28;20209;-77
2021/05/17 02:21:58;;;;;;;1.10;0.80;;;;;;;;;;5015206;28;20607;-77
2021/05/17 02:24:25;;;;;;;1.10;0.70;;;;;;;;;;5017933;28;20194;-77
2021/05/17 02:26:50;;;;;;;1.92;0.90;;;;;;;;;;5009494;28;20480;-78
2021/05/17 02:29:17;;;;;;;1.10;0.77;;;;;;;;;;5014661;28;20207;-77
2021/05/17 02:31:43;;;;;;;1.10;0.70;;;;;;;;;;5014522;28;20183;-77
2021/05/17 02:34:09;;;;;;;1.15;0.80;;;;;;;;;;5016004;28;20580;-77
2021/05/17 02:36:35;;;;;;;1.10;0.70;;;;;;;;;;5013530;28;20657;-76
2021/05/17 02:39:01;;;;;;;1.10;0.70;;;;;;;;;;5012724;28;20557;-77
2021/05/17 02:41:29;;;;;;;1.10;0.70;;;;;;;;;;5013804;28;20191;-77
2021/05/17 02:43:55;;;;;;;1.10;0.80;;;;;;;;;;5006464;28;20176;-77
2021/05/17 02:46:22;;;;;;;1.85;1.02;;;;;;;;;;5014648;28;20182;-77
2021/05/17 02:48:48;;;;;;;1.20;0.70;;;;;;;;;;5013872;28;20194;-77
2021/05/17 02:51:14;;;;;;;1.30;1.13;;;;;;;;;;5014285;28;20638;-77
2021/05/17 02:53:40;;;;;;;1.10;0.70;;;;;;;;;;5014423;28;20599;-77
2021/05/17 02:56:10;;;;;;;1.10;0.80;;;;;;;;;;5014554;28;20229;-77
2021/05/17 02:58:37;;;;;;;1.10;0.90;;;;;;;;;;5013966;28;20414;-77
2021/05/17 03:01:07;;;;;;;1.10;0.80;;;;;;;;;;5014316;28;20273;-77
2021/05/17 03:03:52;;;;;;;1.10;0.73;;;;;;;;;;5014464;28;20232;-77
2021/05/17 03:06:21;;;;;;;1.10;0.70;;;;;;;;;;5012308;28;20186;-77
2021/05/17 03:09:01;;;;;;;1.10;0.70;;;;;;;;;;5013873;28;20552;-76
2021/05/17 03:11:28;;;;;;;1.10;0.80;;;;;;;;;;4994600;28;20266;-76
2021/05/17 03:13:54;;;;;;;3.13;2.92;;;;;;;;;;5004524;28;20226;-77
2021/05/17 03:16:21;;;;;;;1.40;1.00;;;;;;;;;;5013812;28;20178;-77
2021/05/17 03:18:48;;;;;;;1.10;0.80;;;;;;;;;;5013549;28;20218;-76
2021/05/17 03:21:15;;;;;;;1.10;0.70;;;;;;;;;;5014432;28;20198;-79
2021/05/17 03:23:42;;;;;;;1.10;0.80;;;;;;;;;;5016982;28;20185;-79
2021/05/17 03:26:09;;;;;;;1.10;0.82;;;;;;;;;;5016617;28;20179;-79
2021/05/17 03:28:35;;;;;;;1.10;0.70;;;;;;;;;;5015819;28;20220;-78
2021/05/17 03:31:01;;;;;;;1.10;0.70;;;;;;;;;;5015796;28;20199;-78
2021/05/17 03:33:27;;;;;;;1.33;0.90;;;;;;;;;;5015754;28;20417;-79
2021/05/17 03:35:53;;;;;;;1.40;0.90;;;;;;;;;;5016290;28;20497;-78
2021/05/17 03:38:19;;;;;;;1.60;0.80;;;;;;;;;;5019332;28;20418;-78
2021/05/17 03:40:45;;;;;;;1.10;0.70;;;;;;;;;;5031117;28;20483;-77
2021/05/17 03:43:11;;;;;;;1.20;0.80;;;;;;;;;;5034178;28;20483;-77
2021/05/17 03:45:37;;;;;;;1.10;0.70;;;;;;;;;;5027020;28;20418;-76
2021/05/17 03:48:03;;;;;;;1.20;0.70;;;;;;;;;;5026517;28;20436;-78
2021/05/17 03:50:29;;;;;;;1.10;0.70;;;;;;;;;;5017499;28;20241;-78
2021/05/17 03:52:55;;;;;;;1.10;0.82;;;;;;;;;;5019209;28;20229;-77
2021/05/17 03:55:21;;;;;;;1.10;0.80;;;;;;;;;;5018292;28;20189;-78
2021/05/17 03:57:47;;;;;;;1.10;0.70;;;;;;;;;;5018818;28;20409;-78
2021/05/17 04:00:13;;;;;;;1.10;0.70;;;;;;;;;;5017348;28;20199;-78
2021/05/17 04:02:41;;;;;;;1.10;0.80;;;;;;;;;;5015732;28;20413;-76
2021/05/17 04:15:44;;;;;;;1.10;0.70;;;;;;;;;;5007480;28;20528;-78
2021/05/17 04:18:10;;;;;;;1.10;0.80;;;;;;;;;;5015335;28;20182;-76
2021/05/17 04:20:37;;;;;;;1.65;1.40;;;;;;;;;;5015194;28;20205;-78
2021/05/17 04:23:03;;;;;;;1.10;0.70;;;;;;;;;;5016473;28;20646;-77
2021/05/17 04:25:29;;;;;;;1.10;0.70;;;;;;;;;;5015742;28;20210;-78
2021/05/17 04:27:55;;;;;;;1.10;0.75;;;;;;;;;;5012500;28;20476;-78
2021/05/17 04:30:21;;;;;;;1.40;1.00;;;;;;;;;;5012631;28;20210;-78
2021/05/17 04:32:47;;;;;;;1.38;1.13;;;;;;;;;;5012691;28;20218;-77
2021/05/17 04:35:13;;;;;;;1.42;0.80;;;;;;;;;;5011466;28;20555;-78
2021/05/17 04:37:39;;;;;;;2.05;0.90;;;;;;;;;;5012427;28;20183;-77
2021/05/17 04:40:06;;;;;;;1.17;0.83;;;;;;;;;;5011836;28;20734;-77
2021/05/17 04:42:32;;;;;;;1.33;0.80;;;;;;;;;;5011552;28;20963;-77
2021/05/17 04:44:58;;;;;;;1.10;0.80;;;;;;;;;;5007507;28;20187;-78
2021/05/17 04:47:24;;;;;;;1.30;1.10;;;;;;;;;;4994125;28;20406;-78
2021/05/17 04:49:50;;;;;;;1.10;0.65;;;;;;;;;;5011868;28;20293;-78
2021/05/17 04:52:16;;;;;;;1.10;0.80;;;;;;;;;;5014359;28;20170;-77
2021/05/17 04:54:43;;;;;;;1.20;0.77;;;;;;;;;;5015441;28;20166;-78
2021/05/17 04:57:09;;;;;;;1.10;0.80;;;;;;;;;;5015732;28;20410;-77
2021/05/17 04:59:35;;;;;;;1.23;1.00;;;;;;;;;;5014423;28;20731;-76
2021/05/17 05:02:01;;;;;;;1.10;0.70;;;;;;;;;;5014993;28;20181;-76
2021/05/17 05:04:27;;;;;;;1.20;1.10;;;;;;;;;;5014312;28;20422;-77
2021/05/17 05:06:53;;;;;;;1.10;0.70;;;;;;;;;;5011582;28;21085;-77
2021/05/17 05:09:18;;;;;;;1.63;1.20;;;;;;;;;;5014638;28;20944;-77
2021/05/17 05:11:44;;;;;;;1.10;0.80;;;;;;;;;;5014155;28;20782;-78
2021/05/17 05:14:10;;;;;;;1.10;0.73;;;;;;;;;;5014418;28;20502;-78
2021/05/17 05:16:36;;;;;;;1.10;0.80;;;;;;;;;;5009488;28;20412;-79
2021/05/17 05:19:02;;;;;;;1.10;0.70;;;;;;;;;;4999148;28;20422;-79
2021/05/17 05:21:28;;;;;;;1.30;0.73;;;;;;;;;;5006062;28;20440;-79
2021/05/17 05:23:54;;;;;;;1.20;0.90;;;;;;;;;;5017690;28;20174;-79
2021/05/17 05:34:06;;;;;;;1.10;0.70;;;;;;;;;;5016607;28;20252;-80
2021/05/17 05:36:31;;;;;;;2.07;1.43;;;;;;;;;;5016767;28;20638;-80
2021/05/17 05:38:59;;;;;;;1.17;0.97;;;;;;;;;;5016496;28;20416;-78
2021/05/17 05:41:25;;;;;;;1.10;0.73;;;;;;;;;;5016005;28;20437;-78
2021/05/17 05:43:51;;;;;;;1.10;0.80;;;;;;;;;;5016640;28;20704;-78
2021/05/17 05:46:17;;;;;;;1.20;0.73;;;;;;;;;;5009476;28;20920;-79
2021/05/17 05:48:49;;;;;;;1.20;0.90;;;;;;;;;;5016727;28;20457;-78
2021/05/17 05:51:15;;;;;;;1.20;0.70;;;;;;;;;;5017231;28;20406;-79
2021/05/17 05:53:41;;;;;;;1.10;0.70;;;;;;;;;;5016055;28;20270;-78
2021/05/17 05:56:08;;;;;;;1.10;0.70;;;;;;;;;;5016025;28;20229;-79
2021/05/17 05:58:33;;;;;;;1.10;0.70;;;;;;;;;;5016105;28;20175;-77
2021/05/17 06:00:59;;;;;;;1.10;0.70;;;;;;;;;;5015359;28;20293;-77
2021/05/17 06:03:25;;;;;;;1.20;0.77;;;;;;;;;;5015436;28;20417;-78
2021/05/17 06:05:51;;;;;;;1.10;0.70;;;;;;;;;;5015396;28;20463;-77
2021/05/17 06:08:17;;;;;;;1.95;1.13;;;;;;;;;;5015067;28;20769;-77
2021/05/17 06:10:43;;;;;;;1.10;0.70;;;;;;;;;;5014909;28;20213;-77
2021/05/17 06:13:10;;;;;;;1.15;0.77;;;;;;;;;;5016018;28;20417;-77
2021/05/17 06:15:39;;;;;;;1.10;0.90;;;;;;;;;;5006625;28;20179;-77
2021/05/17 06:18:05;;;;;;;1.52;0.70;;;;;;;;;;5014958;28;20179;-77
2021/05/17 06:20:31;;;;;;;1.20;0.82;;;;;;;;;;5015769;28;20222;-78
2021/05/17 06:22:58;;;;;;;1.30;0.88;;;;;;;;;;5025105;28;20714;-78
2021/05/17 06:25:24;;;;;;;1.10;0.60;;;;;;;;;;5028139;28;20273;-78
2021/05/17 06:27:50;;;;;;;1.10;0.80;;;;;;;;;;5029073;28;20194;-78
2021/05/17 06:30:17;;;;;;;1.10;0.90;;;;;;;;;;5034621;28;20215;-77
2021/05/17 06:32:44;;;;;;;1.63;1.08;;;;;;;;;;5024182;28;20170;-76
2021/05/17 06:35:12;;;;;;;1.58;1.08;;;;;;;;;;5035563;28;20190;-77
2021/05/17 06:37:38;;;;;;;1.10;0.70;;;;;;;;;;5027124;28;20580;-77
2021/05/17 06:40:05;;;;;;;1.10;0.60;;;;;;;;;;5013468;28;20203;-79
2021/05/17 06:42:31;;;;;;;1.10;0.77;;;;;;;;;;5013287;28;20439;-79
2021/05/17 06:44:57;;;;;;;1.30;0.90;;;;;;;;;;5016710;28;20375;-78
2021/05/17 06:47:23;;;;;;;2.75;1.20;;;;;;;;;;5026787;28;20194;-79
2021/05/17 06:49:49;;;;;;;1.10;0.60;;;;;;;;;;5028609;28;20214;-79
2021/05/17 06:52:17;;;;;;;1.10;0.70;;;;;;;;;;5025513;28;20285;-79
2021/05/17 06:54:44;;;;;;;1.10;0.70;;;;;;;;;;5025272;28;20171;-79
2021/05/17 06:57:20;;;;;;;1.20;0.80;;;;;;;;;;5029891;28;20187;-78
2021/05/17 06:59:48;;;;;;;1.20;0.70;;;;;;;;;;5022911;28;20274;-78
2021/05/17 07:02:19;;;;;;;1.10;0.80;;;;;;;;;;5022196;28;20183;-78
2021/05/17 07:04:45;;;;;;;1.10;0.60;;;;;;;;;;5021333;28;20206;-79
2021/05/17 07:07:14;;;;;;;1.10;0.70;;;;;;;;;;5021265;28;20665;-79
2021/05/17 07:12:24;;;;;;;1.10;0.70;;;;;;;;;;5010843;28;20676;-77
2021/05/17 07:14:50;;;;;;;1.10;0.70;;;;;;;;;;5013243;28;20266;-78
2021/05/17 07:17:17;;;;;;;1.10;0.70;;;;;;;;;;5019426;28;20460;-78
2021/05/17 07:19:44;;;;;;;1.10;0.70;;;;;;;;;;5018455;28;20449;-78
2021/05/17 07:24:54;;;;;;;1.10;0.60;;;;;;;;;;5020152;28;20226;-79
2021/05/17 07:27:20;;;;;;;1.10;0.80;;;;;;;;;;5019528;28;20176;-78
2021/05/17 07:29:46;;;;;;;3.00;0.80;;;;;;;;;;5020379;28;20465;-79
2021/05/17 07:32:12;;;;;;;1.10;0.60;;;;;;;;;;5016357;28;20556;-79
2021/05/17 07:34:39;;;;;;;1.10;0.80;;;;;;;;;;4999298;28;20231;-79
2021/05/17 07:37:06;;;;;;;1.10;0.70;;;;;;;;;;4999293;28;20403;-78
2021/05/17 07:39:32;;;;;;;1.10;0.70;;;;;;;;;;4999653;28;20199;-78
2021/05/17 07:41:58;;;;;;;1.07;0.60;;;;;;;;;;5012228;28;20677;-79
2021/05/17 07:44:24;;;;;;;1.10;0.70;;;;;;;;;;5013751;28;20812;-78
2021/05/17 07:46:50;;;;;;;1.10;0.60;;;;;;;;;;5015592;28;20176;-79
2021/05/17 07:49:19;;;;;;;1.10;0.70;;;;;;;;;;5016879;28;20478;-78
2021/05/17 07:51:45;;;;;;;1.10;0.70;;;;;;;;;;5020096;28;20167;-78
2021/05/17 07:54:12;;;;;;;1.10;0.70;;;;;;;;;;5020987;28;20194;-78
2021/05/17 07:56:38;;;;;;;1.10;0.60;;;;;;;;;;5018142;28;20543;-78
2021/05/17 07:59:05;;;;;;;1.10;0.80;;;;;;;;;;5018253;28;20176;-79
2021/05/17 08:01:31;;;;;;;1.02;0.60;;;;;;;;;;5018800;28;20193;-78
2021/05/17 08:03:57;;;;;;;1.02;0.60;;;;;;;;;;5018263;28;20182;-78
2021/05/17 08:06:24;;;;;;;1.00;0.60;;;;;;;;;;5016796;28;20250;-77
2021/05/17 08:08:50;;;;;;;1.10;0.70;;;;;;;;;;5017454;28;20198;-80
2021/05/17 08:11:16;;;;;;;1.00;0.70;;;;;;;;;;5022865;28;20616;-79
2021/05/17 08:13:42;;;;;;;1.10;0.80;;;;;;;;;;5021590;28;20179;-79
2021/05/17 08:16:09;;;;;;;1.05;0.70;;;;;;;;;;5010723;28;20408;-79
2021/05/17 08:18:35;;;;;;;1.05;0.70;;;;;;;;;;5019418;28;20180;-79
2021/05/17 08:21:02;;;;;;;1.10;0.60;;;;;;;;;;5013840;28;20223;-79
2021/05/17 08:23:28;;;;;;;1.10;0.60;;;;;;;;;;5017328;28;20183;-79
2021/05/17 08:25:54;;;;;;;1.10;0.73;;;;;;;;;;5018440;28;20175;-79
2021/05/17 08:28:21;;;;;;;1.10;0.60;;;;;;;;;;5019741;28;20170;-79
2021/05/17 08:30:53;;;;;;;1.10;0.60;;;;;;;;;;5019871;28;20199;-79
2021/05/17 08:33:19;;;;;;;1.10;0.70;;;;;;;;;;5020153;28;20565;-79
2021/05/17 08:35:46;;;;;;;1.20;1.00;;;;;;;;;;5018032;28;20622;-79
2021/05/17 08:38:12;;;;;;;1.02;0.60;;;;;;;;;;5019859;28;20186;-79
2021/05/17 08:40:39;;;;;;;1.10;0.70;;;;;;;;;;5020070;28;20206;-79
2021/05/17 08:43:05;;;;;;;1.05;0.60;;;;;;;;;;5020076;28;20209;-79
2021/05/17 08:45:32;;;;;;;1.10;0.70;;;;;;;;;;5011286;28;20202;-79
2021/05/17 08:47:58;;;;;;;1.10;0.70;;;;;;;;;;5020547;28;20266;-79
2021/05/17 08:50:24;;;;;;;1.00;0.60;;;;;;;;;;5020130;28;20211;-80
2021/05/17 08:52:50;;;;;;;1.02;0.70;;;;;;;;;;5020766;28;20174;-80
2021/05/17 08:55:17;;;;;;;1.10;0.70;;;;;;;;;;5020508;28;20594;-79
2021/05/17 08:57:47;;;;;;;1.00;0.60;;;;;;;;;;5023702;28;20561;-80
2021/05/17 09:00:13;;;;;;;1.08;0.60;;;;;;;;;;5008777;28;20211;-79
2021/05/17 09:02:40;;;;;;;1.00;0.70;;;;;;;;;;5001329;28;20192;-79
2021/05/17 09:05:15;;;;;;;1.00;0.60;;;;;;;;;;5000489;28;20183;-79
2021/05/17 09:07:42;;;;;;;1.00;0.60;;;;;;;;;;5016089;28;20268;-79
2021/05/17 09:10:17;;;;;;;1.00;0.60;;;;;;;;;;5019941;28;20218;-78
2021/05/17 09:13:02;;;;;;;1.00;0.60;;;;;;;;;;5019018;28;20186;-79
2021/05/17 09:15:28;;;;;;;1.20;0.75;;;;;;;;;;5021352;28;20528;-79
2021/05/17 09:17:55;;;;;;;2.22;0.90;;;;;;;;;;5010312;28;20176;-79
2021/05/17 09:20:22;;;;;;;1.02;0.70;;;;;;;;;;5018926;28;20237;-79
2021/05/17 09:22:50;;;;;;;1.00;0.68;;;;;;;;;;5018116;28;20180;-79
2021/05/17 09:25:16;;;;;;;1.00;0.60;;;;;;;;;;5020445;28;20176;-79
2021/05/17 09:27:42;;;;;;;1.00;0.70;;;;;;;;;;5018407;28;20195;-77
2021/05/17 09:30:08;;;;;;;1.00;0.60;;;;;;;;;;5017089;28;20501;-77
2021/05/17 09:32:37;;;;;;;1.00;0.60;;;;;;;;;;5016143;28;20383;-77
2021/05/17 09:35:06;;;;;;;1.00;0.60;;;;;;;;;;5015221;28;20415;-77
2021/05/17 09:37:51;;;;;;;1.00;0.60;;;;;;;;;;5016055;28;20400;-79
2021/05/17 09:40:23;;;;;;;1.00;0.60;;;;;;;;;;5019518;28;20464;-77
2021/05/17 09:43:05;;;;;;;1.00;0.60;;;;;;;;;;5009671;28;20387;-79
2021/05/17 09:45:32;;;;;;;1.10;0.77;;;;;;;;;;5018242;28;20763;-78
2021/05/17 09:47:58;;;;;;;1.00;0.60;;;;;;;;;;5017721;28;20498;-79
2021/05/17 09:50:24;;;;;;;1.10;0.70;;;;;;;;;;5017512;28;20501;-78
2021/05/17 09:52:50;;;;;;;1.00;0.70;;;;;;;;;;5015146;28;20388;-78
2021/05/17 09:55:16;;;;;;;0.90;0.60;;;;;;;;;;5004065;28;20406;-79
2021/05/17 09:57:49;;;;;;;0.90;0.70;;;;;;;;;;5015649;28;20432;-78
2021/05/17 10:00:24;;;;;;;0.90;0.70;;;;;;;;;;5012158;28;20497;-78
2021/05/17 10:02:58;;;;;;;0.90;0.60;;;;;;;;;;5011199;28;20413;-78
2021/05/17 10:05:36;;;;;;;0.90;0.60;;;;;;;;;;4992860;28;20390;-77
2021/05/17 10:08:04;;;;;;;0.90;0.60;;;;;;;;;;4995197;28;20391;-77
2021/05/17 10:10:30;;;;;;;0.90;0.60;;;;;;;;;;5008688;28;20453;-77
2021/05/17 10:12:57;;;;;;;1.00;0.80;;;;;;;;;;5014252;28;20436;-77
2021/05/17 10:15:24;;;;;;;0.90;0.60;;;;;;;;;;5018372;28;20874;-77
2021/05/17 10:17:50;;;;;;;1.00;0.70;;;;;;;;;;5005861;28;20746;-76
2021/05/17 10:20:20;;;;;;;0.90;0.70;;;;;;;;;;5014426;28;20427;-76
2021/05/17 10:22:46;;;;;;;0.90;0.60;;;;;;;;;;5014864;28;20430;-77
2021/05/17 10:25:13;;;;;;;0.97;0.70;;;;;;;;;;5004504;28;20447;-77
2021/05/17 10:27:41;;;;;;;0.90;0.60;;;;;;;;;;5011627;28;20439;-77
2021/05/17 10:30:09;;;;;;;0.90;0.60;;;;;;;;;;5013600;28;20481;-77
2021/05/17 10:32:53;;;;;;;0.90;0.60;;;;;;;;;;5017562;28;20392;-77
2021/05/17 10:35:21;;;;;;;0.90;0.60;;;;;;;;;;5016079;28;20397;-78
2021/05/17 10:37:48;;;;;;;0.90;0.60;;;;;;;;;;5016986;28;20394;-77
2021/05/17 10:40:32;;;;;;;0.90;0.60;;;;;;;;;;5020064;28;20452;-77
2021/05/17 10:43:10;;;;;;;1.35;0.80;;;;;;;;;;5008886;28;20431;-78
2021/05/17 10:48:27;;;;;;;1.30;0.80;;;;;;;;;;5017337;28;20266;-79
2021/05/17 10:51:14;;;;;;;1.00;0.60;;;;;;;;;;5017406;28;20248;-78
2021/05/17 10:53:46;;;;;;;1.00;0.60;;;;;;;;;;5018471;28;20191;-79
2021/05/17 10:56:14;;;;;;;1.00;0.70;;;;;;;;;;5033527;28;20182;-79
2021/05/17 11:01:50;;;;;;;1.00;0.70;;;;;;;;;;5028884;28;20709;-78
2021/05/17 11:04:23;;;;;;;1.10;0.70;;;;;;;;;;5015066;28;20179;-78
2021/05/17 11:07:08;;;;;;;1.00;0.70;;;;;;;;;;5015716;28;20533;-78
2021/05/17 11:09:44;;;;;;;0.90;0.60;;;;;;;;;;5019531;28;20629;-77
2021/05/17 11:12:25;;;;;;;0.90;0.60;;;;;;;;;;5027335;28;20180;-77
2021/05/17 11:15:05;;;;;;;0.90;0.60;;;;;;;;;;5015751;28;20191;-78
2021/05/17 11:17:31;;;;;;;0.90;0.70;;;;;;;;;;5015572;28;20657;-77
2021/05/17 11:19:57;;;;;;;0.90;0.70;;;;;;;;;;5015563;28;20219;-77
2021/05/17 11:22:42;;;;;;;0.90;0.60;;;;;;;;;;5016168;28;20478;-79
2021/05/17 11:25:08;;;;;;;0.90;0.63;;;;;;;;;;5016773;28;20465;-78
2021/05/17 11:27:47;;;;;;;0.90;0.60;;;;;;;;;;5014902;28;20197;-78
2021/05/17 11:30:36;;;;;;;0.90;0.70;;;;;;;;;;5013027;28;20479;-77
2021/05/17 11:33:18;;;;;;;0.90;0.60;;;;;;;;;;5002961;28;20286;-77
2021/05/17 11:36:03;;;;;;;0.90;0.60;;;;;;;;;;5013754;28;20702;-77
2021/05/17 11:38:28;;;;;;;1.00;0.85;;;;;;;;;;5018960;28;20202;-78
2021/05/17 11:40:54;;;;;;;0.90;0.60;;;;;;;;;;5024270;28;20634;-78
2021/05/17 11:43:21;;;;;;;0.90;0.60;;;;;;;;;;5013127;28;20484;-78
2021/05/17 11:45:48;;;;;;;1.00;0.60;;;;;;;;;;5014353;28;20168;-78
2021/05/17 11:48:14;;;;;;;0.93;0.60;;;;;;;;;;5016035;28;20199;-79
2021/05/17 11:50:40;;;;;;;0.93;0.60;;;;;;;;;;5008104;28;20210;-78
2021/05/17 11:53:12;;;;;;;1.00;0.70;;;;;;;;;;5022903;28;20176;-78
2021/05/17 11:55:48;;;;;;;1.00;0.68;;;;;;;;;;5012761;28;20172;-79
2021/05/17 11:58:21;;;;;;;1.00;0.70;;;;;;;;;;5017107;28;20190;-80
2021/05/17 12:00:47;;;;;;;1.00;0.60;;;;;;;;;;5028063;28;20198;-79
2021/05/17 12:03:13;;;;;;;0.93;0.63;;;;;;;;;;5029652;28;20176;-78
2021/05/17 12:05:39;;;;;;;2.93;0.83;;;;;;;;;;5027786;28;20501;-79
2021/05/17 12:08:05;;;;;;;0.90;0.60;;;;;;;;;;5028557;28;20425;-79
2021/05/17 12:10:35;;;;;;;1.00;0.70;;;;;;;;;;5022204;28;20465;-78
2021/05/17 12:13:07;;;;;;;1.00;0.70;;;;;;;;;;5023002;28;20787;-79
2021/05/17 12:15:33;;;;;;;1.00;0.70;;;;;;;;;;5020006;28;20266;-79
2021/05/17 12:17:59;;;;;;;1.00;0.70;;;;;;;;;;4999814;28;20655;-75
2021/05/17 12:20:25;;;;;;;0.93;0.60;;;;;;;;;;4992894;28;20454;-76
2021/05/17 12:22:51;;;;;;;0.90;0.70;;;;;;;;;;5013140;28;20468;-79
2021/05/17 12:25:18;;;;;;;0.90;0.70;;;;;;;;;;5024571;28;20397;-80
2021/05/17 12:27:45;;;;;;;0.90;0.60;;;;;;;;;;5040273;28;20199;-79
2021/05/17 12:30:15;;;;;;;0.90;0.60;;;;;;;;;;5016007;28;20531;-80
2021/05/17 12:32:43;;;;;;;1.00;0.70;;;;;;;;;;5039178;28;20207;-80
2021/05/17 12:35:09;;;;;;;0.90;0.60;;;;;;;;;;5039998;28;20179;-81
2021/05/17 12:37:38;;;;;;;0.90;0.70;;;;;;;;;;5025489;28;20179;-80
2021/05/17 12:40:10;;;;;;;0.90;0.70;;;;;;;;;;5023858;28;20212;-80
2021/05/17 12:42:36;;;;;;;0.90;0.60;;;;;;;;;;5010254;28;20180;-80
2021/05/17 12:45:06;;;;;;;0.90;0.60;;;;;;;;;;5024077;28;20205;-80
2021/05/17 12:47:39;;;;;;;0.90;0.70;;;;;;;;;;5024472;28;20428;-80
2021/05/17 12:50:06;;;;;;;1.13;0.80;;;;;;;;;;5027279;28;20469;-80
2021/05/17 12:52:33;;;;;;;0.97;0.67;;;;;;;;;;5025313;28;20481;-79
2021/05/17 12:55:12;;;;;;;1.90;1.03;;;;;;;;;;5025344;28;20438;-80
2021/05/17 12:57:41;;;;;;;0.90;0.70;;;;;;;;;;5029646;28;20399;-80
2021/05/17 13:00:08;;;;;;;1.00;0.70;;;;;;;;;;5019914;28;20928;-80
2021/05/17 13:02:34;;;;;;;1.13;1.03;;;;;;;;;;5023211;28;20494;-79
2021/05/17 13:05:00;;;;;;;0.90;0.70;;;;;;;;;;5027263;28;20396;-79
2021/05/17 13:07:26;;;;;;;0.90;0.70;;;;;;;;;;5028313;28;20459;-79
2021/05/17 13:09:55;;;;;;;1.00;0.80;;;;;;;;;;5027185;28;20446;-80
2021/05/17 13:12:21;;;;;;;1.93;0.70;;;;;;;;;;5028396;28;20178;-79
2021/05/17 13:14:48;;;;;;;0.90;0.63;;;;;;;;;;5028443;28;20941;-79
2021/05/17 13:17:15;;;;;;;0.90;0.60;;;;;;;;;;5015395;28;20493;-78
2021/05/17 13:19:48;;;;;;;1.00;0.83;;;;;;;;;;5017579;28;20450;-78
2021/05/17 13:30:30;;;;;;;0.93;0.80;;;;;;;;;;5021550;28;20499;-79
2021/05/17 13:32:56;;;;;;;0.90;0.80;;;;;;;;;;5025027;28;20476;-78
2021/05/17 13:35:23;;;;;;;1.33;1.23;;;;;;;;;;5025095;28;20786;-79
2021/05/17 13:37:49;;;;;;;1.43;1.33;;;;;;;;;;5025176;28;20435;-79
2021/05/17 13:40:15;;;;;;;0.80;0.70;;;;;;;;;;5024946;28;20423;-79
2021/05/17 13:42:41;;;;;;;0.80;0.70;;;;;;;;;;5026643;28;20808;-79
2021/05/17 13:45:08;;;;;;;0.80;0.60;;;;;;;;;;5032587;28;20407;-79
2021/05/17 13:47:34;;;;;;;4.13;1.03;;;;;;;;;;5023703;28;20481;-79
2021/05/17 13:50:02;;;;;;;0.87;0.80;;;;;;;;;;5028092;28;20502;-79
2021/05/17 13:52:28;;;;;;;1.20;0.80;;;;;;;;;;5028071;28;20577;-79
2021/05/17 13:54:54;;;;;;;1.57;0.80;;;;;;;;;;5024527;28;20169;-81
2021/05/17 13:57:20;;;;;;;1.00;0.87;;;;;;;;;;5020013;28;20416;-81
2021/05/17 13:59:46;;;;;;;0.80;0.70;;;;;;;;;;5019881;28;20819;-80
2021/05/17 14:02:13;;;;;;;1.10;0.70;;;;;;;;;;5047520;28;20400;-79
2021/05/17 14:04:39;;;;;;;0.90;0.80;;;;;;;;;;5027400;28;20467;-79
2021/05/17 14:07:05;;;;;;;0.90;0.80;;;;;;;;;;5028179;28;20477;-79
2021/05/17 14:09:31;;;;;;;1.00;0.80;;;;;;;;;;5028718;28;20470;-80
2021/05/17 14:12:02;;;;;;;0.87;0.70;;;;;;;;;;5028767;28;20388;-80
2021/05/17 14:14:28;;;;;;;0.80;0.67;;;;;;;;;;5033020;28;20438;-79
2021/05/17 14:16:59;;;;;;;1.00;0.70;;;;;;;;;;5018914;28;20424;-80
2021/05/17 14:19:25;;;;;;;1.00;0.90;;;;;;;;;;5027706;28;20435;-80
2021/05/17 14:21:53;;;;;;;0.93;0.83;;;;;;;;;;5029040;28;20459;-80
2021/05/17 14:24:19;;;;;;;1.00;0.90;;;;;;;;;;5028592;28;20741;-80
2021/05/17 14:26:45;;;;;;;1.83;0.80;;;;;;;;;;5026305;28;20517;-80
2021/05/17 14:29:11;;;;;;;1.00;0.70;;;;;;;;;;5027698;28;20474;-79
2021/05/17 14:31:37;;;;;;;2.20;2.10;;;;;;;;;;5031471;28;20425;-80
2021/05/17 14:34:04;;;;;;;0.90;0.70;;;;;;;;;;5034127;28;20403;-80
2021/05/17 14:36:30;;;;;;;1.00;0.90;;;;;;;;;;5031252;28;20581;-80
2021/05/17 14:38:56;;;;;;;0.90;0.70;;;;;;;;;;5032720;28;20394;-80
2021/05/17 14:41:23;;;;;;;4.53;1.07;;;;;;;;;;5032189;28;20809;-79
2021/05/17 14:43:49;;;;;;;0.90;0.77;;;;;;;;;;5036859;28;20401;-79
2021/05/17 14:46:15;;;;;;;1.20;0.80;;;;;;;;;;5020829;28;20421;-80
2021/05/17 14:48:41;;;;;;;1.00;0.90;;;;;;;;;;5026070;28;20265;-80
2021/05/17 14:51:07;;;;;;;1.77;1.23;;;;;;;;;;5023449;28;20412;-81
2021/05/17 14:53:33;;;;;;;1.90;1.30;;;;;;;;;;5022671;28;20182;-79
2021/05/17 14:55:59;;;;;;;1.33;0.97;;;;;;;;;;5026487;28;20405;-80
2021/05/17 14:58:25;;;;;;;1.20;0.70;;;;;;;;;;5022208;28;20429;-78
2021/05/17 15:00:51;;;;;;;1.45;1.25;;;;;;;;;;5026026;28;20461;-80
2021/05/17 15:03:18;;;;;;;0.90;0.80;;;;;;;;;;5021616;28;20254;-80
2021/05/17 15:05:44;;;;;;;0.90;0.80;;;;;;;;;;5017657;28;20226;-78
2021/05/17 15:08:12;;;;;;;0.90;0.73;;;;;;;;;;5011510;28;20190;-77
2021/05/17 15:10:38;;;;;;;1.13;1.00;;;;;;;;;;5022695;28;20219;-79
2021/05/17 15:13:04;;;;;;;0.90;0.70;;;;;;;;;;5019703;28;20167;-79
2021/05/17 15:15:30;;;;;;;0.98;0.77;;;;;;;;;;5035679;28;20175;-78
2021/05/17 15:17:57;;;;;;;1.00;0.88;;;;;;;;;;5009572;28;20238;-79
2021/05/17 15:20:24;;;;;;;1.10;0.80;;;;;;;;;;5005120;28;20227;-80
2021/05/17 15:22:51;;;;;;;0.90;0.60;;;;;;;;;;5002038;28;20197;-80
2021/05/17 15:25:17;;;;;;;1.10;1.00;;;;;;;;;;5025606;28;20678;-79